地図

経路データ

SID SEASON NUMBER BASIN SUBBASIN NAME ISO_TIME NATURE LAT LON WMO_WIND WMO_PRES WMO_AGENCY TRACK_TYPE DIST2LAND LANDFALL IFLAG USA_AGENCY USA_ATCF_ID USA_LAT USA_LON USA_RECORD USA_STATUS USA_WIND USA_PRES USA_SSHS USA_R34_NE USA_R34_SE USA_R34_SW USA_R34_NW USA_R50_NE USA_R50_SE USA_R50_SW USA_R50_NW USA_R64_NE USA_R64_SE USA_R64_SW USA_R64_NW USA_POCI USA_ROCI USA_RMW USA_EYE TOKYO_LAT TOKYO_LON TOKYO_GRADE TOKYO_WIND TOKYO_PRES TOKYO_R50_DIR TOKYO_R50_LONG TOKYO_R50_SHORT TOKYO_R30_DIR TOKYO_R30_LONG TOKYO_R30_SHORT TOKYO_LAND CMA_LAT CMA_LON CMA_CAT CMA_WIND CMA_PRES HKO_LAT HKO_LON HKO_CAT HKO_WIND HKO_PRES NEWDELHI_LAT NEWDELHI_LON NEWDELHI_GRADE NEWDELHI_WIND NEWDELHI_PRES NEWDELHI_CI NEWDELHI_DP NEWDELHI_POCI REUNION_LAT REUNION_LON REUNION_TYPE REUNION_WIND REUNION_PRES REUNION_TNUM REUNION_CI REUNION_RMW REUNION_R34_NE REUNION_R34_SE REUNION_R34_SW REUNION_R34_NW REUNION_R50_NE REUNION_R50_SE REUNION_R50_SW REUNION_R50_NW REUNION_R64_NE REUNION_R64_SE REUNION_R64_SW REUNION_R64_NW BOM_LAT BOM_LON BOM_TYPE BOM_WIND BOM_PRES BOM_TNUM BOM_CI BOM_RMW BOM_R34_NE BOM_R34_SE BOM_R34_SW BOM_R34_NW BOM_R50_NE BOM_R50_SE BOM_R50_SW BOM_R50_NW BOM_R64_NE BOM_R64_SE BOM_R64_SW BOM_R64_NW BOM_ROCI BOM_POCI BOM_EYE BOM_POS_METHOD BOM_PRES_METHOD NADI_LAT NADI_LON NADI_CAT NADI_WIND NADI_PRES WELLINGTON_LAT WELLINGTON_LON WELLINGTON_WIND WELLINGTON_PRES DS824_LAT DS824_LON DS824_STAGE DS824_WIND DS824_PRES TD9636_LAT TD9636_LON TD9636_STAGE TD9636_WIND TD9636_PRES TD9635_LAT TD9635_LON TD9635_WIND TD9635_PRES TD9635_ROCI NEUMANN_LAT NEUMANN_LON NEUMANN_CLASS NEUMANN_WIND NEUMANN_PRES MLC_LAT MLC_LON MLC_CLASS MLC_WIND MLC_PRES USA_GUST BOM_GUST BOM_GUST_PER REUNION_GUST REUNION_GUST_PER USA_SEAHGT USA_SEARAD_NE USA_SEARAD_SE USA_SEARAD_SW USA_SEARAD_NW STORM_SPEED STORM_DIR
1978302N24287 1978 116 NA NA KENDRA 1978-10-28 18:00:00 TS 23.5000 -72.7000 30 1008 hurdat_atl main 258 258 O_____________ hurdat_atl AL231978 23.5000 -72.7000 TD 30 1008 -1 8 327
1978302N24287 1978 116 NA NA KENDRA 1978-10-28 21:00:00 TS 23.8526 -72.9523 main 301 301 P_____________ AL231978 23.8526 -72.9523 TD 35 1005 0 8 327
1978302N24287 1978 116 NA NA KENDRA 1978-10-29 00:00:00 TS 24.2000 -73.2000 40 1002 hurdat_atl main 335 335 O_____________ hurdat_atl AL231978 24.2000 -73.2000 TS 40 1002 0 8 328
1978302N24287 1978 116 NA NA KENDRA 1978-10-29 03:00:00 TS 24.5425 -73.4300 main 369 369 P_____________ AL231978 24.5425 -73.4300 TS 40 1001 0 8 332
1978302N24287 1978 116 NA NA KENDRA 1978-10-29 06:00:00 TS 24.9000 -73.6000 40 hurdat_atl main 415 415 I_____________ hurdat_atl AL231978 24.9000 -73.6000 TS 40 1000 0 8 345
1978302N24287 1978 116 NA NA KENDRA 1978-10-29 09:00:00 TS 25.3149 -73.6504 main 412 412 P_____________ AL231978 25.3149 -73.6504 TS 47 999 0 8 354
1978302N24287 1978 116 NA NA KENDRA 1978-10-29 12:00:00 TS 25.7000 -73.7000 55 998 hurdat_atl main 424 412 O_____________ hurdat_atl AL231978 25.7000 -73.7000 TS 55 998 0 7 337
1978302N24287 1978 116 NA NA KENDRA 1978-10-29 15:00:00 TS 25.9276 -73.9370 main 412 402 P_____________ AL231978 25.9276 -73.9370 TS 60 996 0 6 324
1978302N24287 1978 116 NA NA KENDRA 1978-10-29 18:00:00 TS 26.2000 -74.1000 65 995 hurdat_atl main 407 407 O_____________ hurdat_atl AL231978 26.2000 -74.1000 HU 65 995 1 8 359
1978302N24287 1978 116 NA NA KENDRA 1978-10-29 21:00:00 TS 26.7276 -73.9459 main 447 447 P_____________ AL231978 26.7276 -73.9459 HU 65 1 12 18
1978302N24287 1978 116 NA NA KENDRA 1978-10-30 00:00:00 TS 27.3000 -73.7000 65 hurdat_atl main 494 494 O_____________ hurdat_atl AL231978 27.3000 -73.7000 HU 65 1 10 15
1978302N24287 1978 116 NA NA KENDRA 1978-10-30 03:00:00 TS 27.7222 -73.6366 main 525 525 P_____________ AL231978 27.7222 -73.6366 HU 65 1 8 13
1978302N24287 1978 116 NA NA KENDRA 1978-10-30 06:00:00 TS 28.1000 -73.5000 65 hurdat_atl main 558 558 O_____________ hurdat_atl AL231978 28.1000 -73.5000 HU 65 1 10 32
1978302N24287 1978 116 NA NA KENDRA 1978-10-30 09:00:00 TS 28.5306 -73.0585 main 616 616 P_____________ AL231978 28.5306 -73.0585 HU 67 1 11 45
1978302N24287 1978 116 NA NA KENDRA 1978-10-30 12:00:00 TS 28.9000 -72.6000 70 990 hurdat_atl main 682 682 O_____________ hurdat_atl AL231978 28.9000 -72.6000 HU 70 990 1 8 45
1978302N24287 1978 116 NA NA KENDRA 1978-10-30 15:00:00 TS 29.1072 -72.4043 main 711 711 P_____________ AL231978 29.1072 -72.4043 HU 67 994 1 5 33
1978302N24287 1978 116 NA NA KENDRA 1978-10-30 18:00:00 TS 29.3000 -72.3000 65 998 hurdat_atl main 720 697 O_____________ hurdat_atl AL231978 29.3000 -72.3000 HU 65 998 1 6 25
1978302N24287 1978 116 NA NA KENDRA 1978-10-30 21:00:00 TS 29.6425 -72.1203 main 703 672 P_____________ AL231978 29.6425 -72.1203 HU 55 1002 0 7 20
1978302N24287 1978 116 NA NA KENDRA 1978-10-31 00:00:00 TS 30.0000 -72.0000 45 1006 hurdat_atl main 672 655 O_____________ hurdat_atl AL231978 30.0000 -72.0000 TS 45 1006 0 6 7
1978302N24287 1978 116 NA NA KENDRA 1978-10-31 03:00:00 TS 30.2575 -72.0421 main 646 623 P_____________ AL231978 30.2575 -72.0421 TS 45 0 5 350
1978302N24287 1978 116 NA NA KENDRA 1978-10-31 06:00:00 TS 30.5000 -72.1000 45 hurdat_atl main 623 604 O_____________ hurdat_atl AL231978 30.5000 -72.1000 TS 45 0 5 2
1978302N24287 1978 116 NA NA KENDRA 1978-10-31 09:00:00 TS 30.7925 -72.0226 main 604 587 P_____________ AL231978 30.7925 -72.0226 TS 45 0 6 16
1978302N24287 1978 116 NA NA KENDRA 1978-10-31 12:00:00 TS 31.1000 -71.9000 45 hurdat_atl main 587 564 O_____________ hurdat_atl AL231978 31.1000 -71.9000 TS 45 0 6 12
1978302N24287 1978 116 NA NA KENDRA 1978-10-31 15:00:00 TS 31.3770 -71.8739 main 564 556 P_____________ AL231978 31.3770 -71.8739 TS 45 0 6 16
1978302N24287 1978 116 NA NA KENDRA 1978-10-31 18:00:00 TS 31.7000 -71.7000 45 hurdat_atl main 556 556 O_____________ hurdat_atl AL231978 31.7000 -71.7000 TS 45 0 9 36
1978302N24287 1978 116 NA NA KENDRA 1978-10-31 21:00:00 TS 32.1114 -71.2563 main 558 558 P_____________ AL231978 32.1114 -71.2563 TS 45 0 14 48
1978302N24287 1978 116 NA NA KENDRA 1978-11-01 00:00:00 TS 32.6000 -70.5000 45 hurdat_atl main 581 581 O_____________ hurdat_atl AL231978 32.6000 -70.5000 TS 45 0 18 57
1978302N24287 1978 116 NA NA KENDRA 1978-11-01 03:00:00 TS 33.1050 -69.4608 main 625 625 P_____________ AL231978 33.1050 -69.4608 TS 37 0 22 60
1978302N24287 1978 116 NA NA KENDRA 1978-11-01 06:00:00 ET 33.7000 -68.2000 30 1008 hurdat_atl main 705 705 O_____________ hurdat_atl AL231978 33.7000 -68.2000 EX 30 1008 -4 24 59
1978302N24287 1978 116 NA NA KENDRA 1978-11-01 09:00:00 ET 34.3151 -67.0383 main 789 786 P_____________ AL231978 34.3151 -67.0383 EX 30 1007 -4 27 56
1978302N24287 1978 116 NA NA KENDRA 1978-11-01 12:00:00 ET 35.2000 -65.5000 30 1006 hurdat_atl main 822 804 O_____________ hurdat_atl AL231978 35.2000 -65.5000 EX 30 1006 -4 38 55
1978302N24287 1978 116 NA NA KENDRA 1978-11-01 15:00:00 ET 36.5296 -63.1796 main 799 734 P_____________ AL231978 36.5296 -63.1796 EX 35 1004 -4 49 55
1978302N24287 1978 116 NA NA KENDRA 1978-11-01 18:00:00 ET 38.0000 -60.5000 40 1002 hurdat_atl main 732 695 O_____________ hurdat_atl AL231978 38.0000 -60.5000 EX 40 1002 -4 50 55
1978302N24287 1978 116 NA NA KENDRA 1978-11-01 21:00:00 ET 39.4140 -58.0423 main 693 670 P_____________ AL231978 39.4140 -58.0423 EX 40 -4 46 57
1978302N24287 1978 116 NA NA KENDRA 1978-11-02 00:00:00 ET 40.5000 -55.5000 40 hurdat_atl main 691 655 O_____________ hurdat_atl AL231978 40.5000 -55.5000 EX 40 -4 42 72
1978302N24287 1978 116 NA NA KENDRA 1978-11-02 03:00:00 ET 40.7436 -52.7852 main 656 647 P_____________ AL231978 40.7436 -52.7852 EX 40 -4 42 83
1978302N24287 1978 116 NA NA KENDRA 1978-11-02 06:00:00 ET 41.0000 -50.0000 40 hurdat_atl main 672 669 O_____________ hurdat_atl AL231978 41.0000 -50.0000 EX 40 -4 46 71
1978302N24287 1978 116 NA NA KENDRA 1978-11-02 09:00:00 ET 42.2157 -46.9562 main 692 692 P_____________ AL231978 42.2157 -46.9562 EX 40 -4 51 61
1978302N24287 1978 116 NA NA KENDRA 1978-11-02 12:00:00 ET 43.5000 -44.0000 40 hurdat_atl main 792 792 O_____________ hurdat_atl AL231978 43.5000 -44.0000 EX 40 -4 43 65
1978302N24287 1978 116 NA NA KENDRA 1978-11-02 15:00:00 ET 44.0625 -41.6126 main 928 928 P_____________ AL231978 44.0625 -41.6126 EX 40 -4 34 73
1978302N24287 1978 116 NA NA KENDRA 1978-11-02 18:00:00 ET 44.5000 -39.5000 40 hurdat_atl main 1059 1059 O_____________ hurdat_atl AL231978 44.5000 -39.5000 EX 40 -4 33 70
1978302N24287 1978 116 NA NA KENDRA 1978-11-02 21:00:00 ET 45.2103 -37.2127 main 1202 1202 P_____________ AL231978 45.2103 -37.2127 EX 35 -4 35 65
1978302N24287 1978 116 NA NA KENDRA 1978-11-03 00:00:00 ET 46.0000 -35.0000 30 1004 hurdat_atl main 1342 1342 O_____________ hurdat_atl AL231978 46.0000 -35.0000 EX 30 1004 -4 33 64
1978302N24287 1978 116 NA NA KENDRA 1978-11-03 03:00:00 ET 46.6697 -32.9471 main 1483 1483 P_____________ AL231978 46.6697 -32.9471 EX 30 -4 31 61
1978302N24287 1978 116 NA NA KENDRA 1978-11-03 06:00:00 ET 47.5000 -31.0000 30 hurdat_atl main 1544 1371 O_____________ hurdat_atl AL231978 47.5000 -31.0000 EX 30 -4 33 53
1978302N24287 1978 116 NA NA KENDRA 1978-11-03 09:00:00 ET 48.6579 -29.0414 main 1354 1178 P_____________ AL231978 48.6579 -29.0414 EX 30 -4 36 47
1978302N24287 1978 116 NA NA KENDRA 1978-11-03 12:00:00 ET 50.0000 -27.0000 30 hurdat_atl main 1168 O_____________ hurdat_atl AL231978 50.0000 -27.0000 EX 30 -4 38 44

IBTrACS Databaseについて

本データベースは、米国NOAAが公開する1842年以降の世界の熱帯低気圧のベストトラックデータアーカイブInternational Best Track Archive for Climate Stewardship (IBTrACS)を、ウェブで閲覧しやすい形式に変換したものです。

最終更新日:2021-12-06